createdAt,value
2018-06-22T00:01:54.921Z,68.10
2018-06-22T00:04:22.218Z,68.10
2018-06-22T00:06:49.654Z,68.30
2018-06-22T00:09:17.015Z,68.50
2018-06-22T00:11:44.336Z,68.30
2018-06-22T00:14:11.619Z,68.60
2018-06-22T00:16:38.940Z,69.10
2018-06-22T00:19:06.243Z,69.10
2018-06-22T00:21:33.552Z,68.90
2018-06-22T00:24:00.898Z,68.80
2018-06-22T00:26:28.424Z,68.60
2018-06-22T00:28:55.743Z,69.10
2018-06-22T00:31:23.049Z,69.60
2018-06-22T00:33:50.379Z,69.70
2018-06-22T00:36:17.722Z,69.70
2018-06-22T00:38:45.024Z,69.40
2018-06-22T00:41:12.329Z,69.30
2018-06-22T00:43:39.615Z,69.30
2018-06-22T00:46:06.946Z,69.30
2018-06-22T00:48:34.267Z,69.00
2018-06-22T00:51:01.594Z,68.90
2018-06-22T00:53:40.400Z,69.30
2018-06-22T00:56:07.691Z,70.10
2018-06-22T00:58:36.000Z,71.10
2018-06-22T01:01:03.313Z,71.60
2018-06-22T01:03:30.614Z,72.30
2018-06-22T01:05:57.910Z,72.50
2018-06-22T01:08:25.240Z,72.60
2018-06-22T01:10:52.593Z,72.60
2018-06-22T01:13:19.915Z,72.60
2018-06-22T01:15:47.254Z,72.40
2018-06-22T01:18:14.553Z,72.20
2018-06-22T01:20:41.849Z,72.30
2018-06-22T01:23:09.159Z,72.50
2018-06-22T01:25:36.505Z,72.90
2018-06-22T01:28:03.836Z,73.10
2018-06-22T01:30:31.154Z,72.90
2018-06-22T01:32:58.491Z,72.70
2018-06-22T01:35:25.808Z,72.40
2018-06-22T01:37:53.109Z,72.00
2018-06-22T01:40:20.406Z,72.20
2018-06-22T01:42:47.790Z,72.50
2018-06-22T01:45:15.098Z,72.60
2018-06-22T01:47:42.398Z,72.40
2018-06-22T01:50:09.701Z,72.10
2018-06-22T01:52:36.985Z,72.30
2018-06-22T01:55:04.291Z,72.20
2018-06-22T01:57:31.582Z,72.60
2018-06-22T01:59:58.906Z,72.70
2018-06-22T02:02:26.454Z,72.80
2018-06-22T02:04:53.762Z,73.10
2018-06-22T02:07:21.063Z,73.10
2018-06-22T02:09:48.435Z,72.70
2018-06-22T02:12:15.701Z,73.00
2018-06-22T02:14:43.591Z,73.10
2018-06-22T02:17:10.898Z,73.10
2018-06-22T02:19:38.203Z,73.00
2018-06-22T02:22:05.549Z,73.40
2018-06-22T02:24:32.867Z,73.30
2018-06-22T02:27:00.220Z,73.20
2018-06-22T02:29:27.518Z,73.20
2018-06-22T02:31:54.802Z,73.40
2018-06-22T02:34:22.126Z,73.50
2018-06-22T02:36:49.424Z,73.30
2018-06-22T02:39:16.735Z,73.20
2018-06-22T02:41:44.018Z,73.20
2018-06-22T02:44:11.321Z,73.20
2018-06-22T02:49:05.822Z,73.30
2018-06-22T02:51:33.146Z,73.50
2018-06-22T02:54:00.452Z,73.60
2018-06-22T02:56:27.759Z,73.50
2018-06-22T02:58:55.063Z,73.50
2018-06-22T03:01:22.363Z,73.60
2018-06-22T03:03:49.668Z,73.50
2018-06-22T03:06:17.021Z,73.30
2018-06-22T03:08:44.330Z,73.50
2018-06-22T03:11:11.738Z,73.80
2018-06-22T03:13:39.051Z,74.10
2018-06-22T03:16:07.369Z,74.10
2018-06-22T03:18:34.656Z,73.90
2018-06-22T03:21:01.977Z,73.80
2018-06-22T03:23:29.295Z,73.50
2018-06-22T03:25:56.613Z,73.30
2018-06-22T03:28:23.887Z,73.40
2018-06-22T03:30:51.191Z,73.50
2018-06-22T03:33:18.496Z,73.00
2018-06-22T03:35:45.818Z,73.30
2018-06-22T03:38:13.127Z,73.50
2018-06-22T03:40:40.432Z,73.70
2018-06-22T03:43:07.738Z,73.30
2018-06-22T03:45:35.047Z,73.20
2018-06-22T03:48:02.356Z,73.70
2018-06-22T03:50:29.707Z,73.50
2018-06-22T03:52:57.141Z,73.50
2018-06-22T03:57:51.621Z,73.00
2018-06-22T04:00:18.930Z,73.10
2018-06-22T04:02:46.226Z,73.40
2018-06-22T04:05:13.519Z,73.60
2018-06-22T04:07:40.858Z,73.60
2018-06-22T04:10:08.149Z,73.80
2018-06-22T04:12:35.476Z,73.70
2018-06-22T04:19:57.148Z,73.80
2018-06-22T04:22:24.459Z,73.30
2018-06-22T04:24:51.773Z,73.20
2018-06-22T04:27:19.110Z,73.20
2018-06-22T04:29:46.407Z,73.10
2018-06-22T04:32:13.730Z,73.10
2018-06-22T04:34:41.042Z,73.30
2018-06-22T04:37:08.330Z,73.00
2018-06-22T04:39:36.186Z,73.00
2018-06-22T04:42:03.481Z,72.90
2018-06-22T04:44:30.895Z,72.90
2018-06-22T04:46:58.255Z,72.90
2018-06-22T04:49:25.557Z,71.90
2018-06-22T04:51:53.041Z,71.90
2018-06-22T04:54:20.346Z,72.10
2018-06-22T04:56:47.663Z,72.00
2018-06-22T04:59:14.979Z,72.30
2018-06-22T05:01:42.299Z,72.40
2018-06-22T05:04:09.654Z,72.70
2018-06-22T05:06:37.127Z,72.50
2018-06-22T05:09:06.227Z,72.20
2018-06-22T05:11:33.548Z,72.20
2018-06-22T05:14:00.898Z,71.80
2018-06-22T05:16:28.206Z,71.20
2018-06-22T05:18:55.509Z,71.20
2018-06-22T05:21:22.883Z,72.10
2018-06-22T05:23:50.221Z,72.40
2018-06-22T05:26:17.623Z,72.10
2018-06-22T05:28:44.905Z,72.00
2018-06-22T05:31:12.217Z,71.60
2018-06-22T05:33:39.550Z,71.80
2018-06-22T05:36:06.881Z,72.20
2018-06-22T05:38:34.215Z,72.40
2018-06-22T05:41:01.569Z,72.30
2018-06-22T05:45:56.066Z,71.90
2018-06-22T05:48:23.392Z,72.10
2018-06-22T05:50:50.996Z,71.80
2018-06-22T05:53:18.132Z,71.80
2018-06-22T05:55:45.433Z,71.50
2018-06-22T05:58:12.766Z,71.40
2018-06-22T06:00:40.150Z,71.00
2018-06-22T06:03:07.487Z,70.70
2018-06-22T06:05:34.869Z,70.80
2018-06-22T06:08:02.338Z,70.60
2018-06-22T06:10:29.689Z,70.00
2018-06-22T06:12:57.014Z,70.10
2018-06-22T06:15:24.333Z,69.80
2018-06-22T06:17:51.626Z,69.20
2018-06-22T06:20:18.937Z,67.70
2018-06-22T06:22:46.274Z,67.70
2018-06-22T06:25:13.569Z,68.10
2018-06-22T06:27:40.890Z,68.40
2018-06-22T06:30:08.239Z,67.80
2018-06-22T06:32:35.588Z,67.50
2018-06-22T06:35:02.896Z,67.20
2018-06-22T06:37:30.289Z,67.70
2018-06-22T06:39:57.600Z,67.70
2018-06-22T06:42:24.918Z,67.90
2018-06-22T06:44:52.208Z,67.50
2018-06-22T06:47:19.545Z,67.20
2018-06-22T06:49:46.846Z,67.00
2018-06-22T06:52:14.175Z,67.10
2018-06-22T06:54:41.479Z,66.30
2018-06-22T06:57:08.811Z,66.50
2018-06-22T06:59:36.228Z,67.00
2018-06-22T07:02:03.491Z,67.10
2018-06-22T07:04:30.918Z,67.10
2018-06-22T07:06:58.410Z,66.40
2018-06-22T07:09:26.099Z,67.30
2018-06-22T07:11:53.451Z,66.80
2018-06-22T07:14:20.778Z,66.20
2018-06-22T07:16:48.072Z,66.20
2018-06-22T07:19:15.386Z,66.60
2018-06-22T07:21:42.685Z,67.00
2018-06-22T07:24:10.026Z,67.00
2018-06-22T07:26:37.346Z,67.80
2018-06-22T07:29:04.650Z,67.70
2018-06-22T07:31:32.057Z,67.50
2018-06-22T07:33:59.388Z,67.10
2018-06-22T07:36:26.794Z,67.20
2018-06-22T07:38:54.107Z,66.80
2018-06-22T07:41:21.430Z,67.10
2018-06-22T07:43:48.771Z,67.00
2018-06-22T07:46:16.021Z,66.30
2018-06-22T07:48:43.433Z,66.60
2018-06-22T07:51:10.698Z,66.50
2018-06-22T07:53:38.173Z,66.80
2018-06-22T07:56:05.482Z,67.30
2018-06-22T07:58:32.803Z,67.40
2018-06-22T08:01:00.764Z,68.00
2018-06-22T08:03:28.179Z,67.50
2018-06-22T08:05:55.524Z,67.70
2018-06-22T08:08:22.829Z,68.10
2018-06-22T08:10:50.127Z,68.10
2018-06-22T08:13:17.440Z,68.10
2018-06-22T08:15:44.771Z,67.90
2018-06-22T08:18:12.150Z,67.60
2018-06-22T08:23:06.694Z,66.80
2018-06-22T08:25:33.978Z,66.80
2018-06-22T08:28:01.310Z,66.80
2018-06-22T08:32:55.796Z,66.10
2018-06-22T08:35:23.137Z,65.70
2018-06-22T08:37:50.439Z,65.80
2018-06-22T08:40:17.847Z,66.20
2018-06-22T08:42:45.134Z,67.00
2018-06-22T08:45:12.504Z,66.10
2018-06-22T08:47:39.794Z,66.60
2018-06-22T08:50:07.349Z,67.00
2018-06-22T08:52:34.677Z,67.00
2018-06-22T08:55:02.089Z,66.60
2018-06-22T08:57:29.409Z,66.70
2018-06-22T08:59:56.748Z,67.40
2018-06-22T09:02:24.114Z,67.40
2018-06-22T09:04:51.433Z,66.10
2018-06-22T09:07:18.848Z,66.20
2018-06-22T09:09:46.192Z,65.90
2018-06-22T09:12:13.510Z,65.70
2018-06-22T09:14:40.928Z,65.30
2018-06-22T09:17:08.402Z,65.40
2018-06-22T09:19:35.725Z,66.30
2018-06-22T09:22:03.023Z,66.80
2018-06-22T09:24:30.364Z,66.50
2018-06-22T09:26:58.541Z,66.50
2018-06-22T09:29:25.863Z,66.40
2018-06-22T09:31:53.698Z,66.40
2018-06-22T09:34:21.043Z,66.80
2018-06-22T09:36:48.517Z,66.50
2018-06-22T09:39:15.757Z,66.10
2018-06-22T09:41:43.105Z,65.50
2018-06-22T09:44:41.583Z,66.00
2018-06-22T09:49:53.791Z,65.30
2018-06-22T09:52:21.217Z,65.60
2018-06-22T09:54:48.586Z,65.80
2018-06-22T09:57:16.044Z,65.40
2018-06-22T09:59:43.377Z,64.90
2018-06-22T10:02:10.770Z,64.00
2018-06-22T10:04:38.114Z,64.20
2018-06-22T10:07:05.382Z,64.40
2018-06-22T10:09:32.714Z,65.60
2018-06-22T10:12:00.045Z,65.30
2018-06-22T10:14:27.420Z,64.80
2018-06-22T10:16:54.760Z,64.30
2018-06-22T10:19:22.059Z,63.90
2018-06-22T10:21:49.369Z,64.60
2018-06-22T10:24:16.786Z,64.90
2018-06-22T10:26:44.090Z,65.40
2018-06-22T10:29:11.378Z,65.90
2018-06-22T10:31:38.703Z,65.70
2018-06-22T10:34:06.030Z,65.20
2018-06-22T10:36:33.335Z,65.00
2018-06-22T10:39:00.682Z,65.90
2018-06-22T10:41:28.004Z,66.10
2018-06-22T10:43:55.296Z,66.30
2018-06-22T10:46:22.631Z,66.50
2018-06-22T10:48:49.957Z,66.60
2018-06-22T10:51:17.317Z,66.70
2018-06-22T10:53:44.604Z,67.20
2018-06-22T10:56:11.934Z,67.20
2018-06-22T10:58:39.310Z,66.70
2018-06-22T11:01:06.652Z,66.30
2018-06-22T11:03:33.994Z,65.80
2018-06-22T11:06:01.350Z,66.40
2018-06-22T11:08:29.675Z,65.70
2018-06-22T11:10:56.991Z,65.80
2018-06-22T11:13:24.323Z,66.40
2018-06-22T11:15:51.639Z,66.10
2018-06-22T11:18:18.979Z,65.90
2018-06-22T11:20:46.314Z,65.70
2018-06-22T11:23:13.659Z,65.50
2018-06-22T11:25:41.014Z,65.80
2018-06-22T11:28:08.332Z,66.60
2018-06-22T11:30:35.655Z,67.10
2018-06-22T11:33:03.022Z,67.10
2018-06-22T11:35:30.515Z,67.10
2018-06-22T11:37:57.883Z,67.10
2018-06-22T11:40:25.183Z,67.30
2018-06-22T11:42:52.561Z,66.90
2018-06-22T11:45:19.928Z,66.70
2018-06-22T11:47:47.219Z,66.90
2018-06-22T11:50:14.546Z,67.10
2018-06-22T11:52:41.854Z,66.00
2018-06-22T11:55:09.196Z,65.00
2018-06-22T11:57:36.568Z,64.20
2018-06-22T12:00:04.555Z,63.90
2018-06-22T12:02:32.331Z,63.90
2018-06-22T12:04:59.658Z,64.00
2018-06-22T12:07:27.055Z,64.20
2018-06-22T12:09:54.427Z,64.30
2018-06-22T12:12:21.735Z,64.70
2018-06-22T12:14:49.051Z,64.70
2018-06-22T12:17:16.404Z,64.60
2018-06-22T12:19:43.706Z,64.70
2018-06-22T12:22:11.019Z,64.30
2018-06-22T12:24:38.358Z,64.20
2018-06-22T12:27:05.696Z,63.90
2018-06-22T12:29:33.063Z,64.00
2018-06-22T12:32:00.419Z,63.30
2018-06-22T12:34:27.746Z,63.60
2018-06-22T12:36:55.244Z,63.40
2018-06-22T12:39:22.579Z,62.40
2018-06-22T12:41:49.916Z,62.50
2018-06-22T12:44:17.249Z,62.70
2018-06-22T12:46:44.564Z,62.80
2018-06-22T12:49:11.903Z,62.20
2018-06-22T12:51:39.275Z,61.90
2018-06-22T12:54:06.647Z,61.00
2018-06-22T12:56:33.960Z,61.30
2018-06-22T12:59:01.380Z,60.90
2018-06-22T13:01:28.725Z,60.30
2018-06-22T13:03:56.063Z,60.10
2018-06-22T13:06:23.373Z,61.20
2018-06-22T13:08:50.781Z,61.30
2018-06-22T13:11:18.209Z,60.30
2018-06-22T13:13:45.582Z,60.10
2018-06-22T13:16:12.947Z,60.70
2018-06-22T13:18:40.239Z,61.30
2018-06-22T13:21:07.569Z,61.60
2018-06-22T13:23:34.887Z,61.60
2018-06-22T13:26:02.210Z,61.90
2018-06-22T13:28:29.515Z,62.30
2018-06-22T13:30:56.815Z,61.90
2018-06-22T13:33:24.203Z,61.80
2018-06-22T13:35:51.502Z,60.00
2018-06-22T13:38:18.860Z,60.10
2018-06-22T13:40:46.240Z,60.30
2018-06-22T13:43:13.565Z,60.30
2018-06-22T13:45:40.991Z,60.50
2018-06-22T13:48:08.313Z,59.90
2018-06-22T13:50:35.637Z,59.90
2018-06-22T13:53:03.030Z,59.10
2018-06-22T13:57:57.592Z,58.50
2018-06-22T14:00:24.963Z,58.20
2018-06-22T14:02:52.312Z,58.50
2018-06-22T14:05:19.705Z,59.10
2018-06-22T14:07:46.997Z,58.40
2018-06-22T14:10:14.368Z,58.90
2018-06-22T14:12:41.714Z,59.70
2018-06-22T14:15:09.072Z,58.70
2018-06-22T14:17:36.366Z,58.20
2018-06-22T14:20:03.740Z,58.20
2018-06-22T14:22:31.024Z,58.10
2018-06-22T14:24:58.338Z,57.40
2018-06-22T14:27:25.631Z,57.20
2018-06-22T14:29:53.015Z,57.70
2018-06-22T14:32:20.316Z,58.80
2018-06-22T14:34:47.603Z,58.00
2018-06-22T14:37:14.939Z,58.20
2018-06-22T14:39:42.271Z,58.60
2018-06-22T14:42:09.622Z,59.10
2018-06-22T14:44:36.916Z,58.50
2018-06-22T14:47:04.351Z,58.20
2018-06-22T14:49:31.665Z,58.30
2018-06-22T14:51:59.043Z,58.00
2018-06-22T14:54:26.448Z,57.30
2018-06-22T14:56:53.752Z,57.10
2018-06-22T14:59:21.035Z,57.80
2018-06-22T15:01:48.440Z,57.80
2018-06-22T15:04:16.112Z,58.10
2018-06-22T15:06:43.425Z,59.00
2018-06-22T15:09:10.743Z,59.30
2018-06-22T15:11:38.087Z,59.30
2018-06-22T15:14:05.397Z,58.90
2018-06-22T15:16:32.759Z,59.10
2018-06-22T15:19:00.157Z,59.30
2018-06-22T15:21:27.872Z,59.30
2018-06-22T15:23:55.251Z,58.50
2018-06-22T15:26:22.584Z,59.00
2018-06-22T15:28:49.968Z,59.40
2018-06-22T15:31:17.286Z,59.50
2018-06-22T15:36:11.994Z,56.40
2018-06-22T15:38:39.438Z,56.70
2018-06-22T15:41:06.852Z,57.20
2018-06-22T15:43:34.258Z,57.10
2018-06-22T15:46:01.704Z,56.60
2018-06-22T15:50:56.340Z,57.30
2018-06-22T15:53:23.689Z,57.60
2018-06-22T15:55:51.111Z,57.70
2018-06-22T15:58:18.548Z,58.60
2018-06-22T16:00:45.882Z,58.70
2018-06-22T16:03:13.342Z,59.70
2018-06-22T16:05:40.779Z,60.20
2018-06-22T16:08:08.261Z,60.50
2018-06-22T16:10:35.686Z,60.50
2018-06-22T16:13:03.198Z,60.20
2018-06-22T16:17:57.912Z,59.30
2018-06-22T16:20:25.335Z,58.40
2018-06-22T16:22:52.693Z,58.00
2018-06-22T16:25:20.033Z,58.50
2018-06-22T16:27:47.481Z,58.00
2018-06-22T16:30:14.804Z,57.70
2018-06-22T16:32:42.164Z,57.20
2018-06-22T16:35:09.504Z,57.30
2018-06-22T16:37:36.852Z,56.00
2018-06-22T16:40:04.207Z,53.70
2018-06-22T16:42:31.614Z,52.70
2018-06-22T16:44:59.004Z,53.20
2018-06-22T16:47:26.378Z,54.10
2018-06-22T16:49:53.712Z,53.80
2018-06-22T16:52:21.060Z,53.60
2018-06-22T16:59:42.852Z,50.80
2018-06-22T17:02:10.204Z,50.80
2018-06-22T17:04:37.627Z,50.20
2018-06-22T17:07:04.958Z,49.30
2018-06-22T17:09:32.278Z,48.70
2018-06-22T17:11:59.844Z,49.80
2018-06-22T17:14:27.200Z,49.60
2018-06-22T17:16:54.569Z,49.90
2018-06-22T17:19:21.908Z,49.50
2018-06-22T17:21:49.662Z,50.60
2018-06-22T17:24:17.046Z,50.50
2018-06-22T17:26:44.363Z,50.00
2018-06-22T17:29:11.743Z,50.90
2018-06-22T17:31:39.072Z,51.80
2018-06-22T17:34:06.391Z,52.20
2018-06-22T17:36:34.089Z,51.80
2018-06-22T17:39:01.478Z,51.00
2018-06-22T17:41:28.875Z,52.20
2018-06-22T17:43:56.277Z,52.00
2018-06-22T17:46:23.681Z,52.10
2018-06-22T17:48:50.963Z,51.90
2018-06-22T17:51:18.316Z,51.90
2018-06-22T17:53:45.634Z,52.20
2018-06-22T17:56:12.980Z,52.70
2018-06-22T17:58:40.330Z,53.40
2018-06-22T18:03:34.939Z,56.20
2018-06-22T18:06:02.384Z,56.30
2018-06-22T18:08:29.774Z,55.50
2018-06-22T18:10:57.182Z,55.80
2018-06-22T18:13:24.535Z,55.10
2018-06-22T18:18:19.043Z,56.90
2018-06-22T18:20:46.375Z,57.90
2018-06-22T18:23:13.677Z,58.10
2018-06-22T18:25:40.979Z,58.60
2018-06-22T18:28:08.306Z,59.00
2018-06-22T18:30:35.635Z,59.60
2018-06-22T18:33:03.016Z,60.30
2018-06-22T18:35:30.299Z,60.30
2018-06-22T18:37:57.608Z,60.10
2018-06-22T18:40:24.965Z,60.30
2018-06-22T18:42:52.284Z,60.90
2018-06-22T18:45:19.562Z,61.30
2018-06-22T18:47:46.883Z,61.50
2018-06-22T18:50:14.191Z,61.80
2018-06-22T18:52:41.616Z,61.50
2018-06-22T18:55:09.009Z,61.60
2018-06-22T18:57:36.308Z,61.80
2018-06-22T19:00:03.874Z,62.30
2018-06-22T19:02:31.179Z,62.60
2018-06-22T19:04:58.533Z,63.10
2018-06-22T19:07:25.816Z,63.00
2018-06-22T19:09:53.158Z,63.40
2018-06-22T19:12:20.457Z,63.60
2018-06-22T19:14:47.782Z,63.60
2018-06-22T19:17:15.115Z,63.90
2018-06-22T19:19:42.448Z,63.70
2018-06-22T19:22:09.764Z,63.80
2018-06-22T19:24:37.091Z,63.90
2018-06-22T19:27:04.396Z,63.90
2018-06-22T19:29:31.794Z,63.90
2018-06-22T19:31:59.149Z,64.00
2018-06-22T19:34:26.459Z,64.40
2018-06-22T19:36:53.816Z,64.40
2018-06-22T19:39:21.209Z,64.50
2018-06-22T19:41:48.513Z,64.80
2018-06-22T19:44:15.961Z,64.80
2018-06-22T19:46:43.285Z,65.00
2018-06-22T19:49:10.693Z,65.40
2018-06-22T19:51:38.002Z,65.60
2018-06-22T19:54:05.343Z,65.70
2018-06-22T19:56:32.621Z,65.80
2018-06-22T19:58:59.960Z,65.60
2018-06-22T20:01:27.318Z,65.80
2018-06-22T20:03:54.776Z,66.10
2018-06-22T20:06:22.108Z,66.00
2018-06-22T20:08:49.394Z,66.10
2018-06-22T20:11:16.738Z,66.30
2018-06-22T20:13:44.201Z,66.50
2018-06-22T20:16:11.514Z,66.50
2018-06-22T20:18:38.848Z,66.30
2018-06-22T20:21:06.138Z,66.10
2018-06-22T20:23:33.479Z,66.10
2018-06-22T20:26:00.774Z,66.40
2018-06-22T20:28:28.129Z,66.60
2018-06-22T20:30:55.410Z,66.50
2018-06-22T20:33:22.771Z,66.50
2018-06-22T20:35:50.087Z,66.50
2018-06-22T20:38:18.313Z,66.30
2018-06-22T20:40:45.627Z,66.40
2018-06-22T20:43:12.944Z,66.50
2018-06-22T20:45:40.254Z,66.40
2018-06-22T20:48:07.614Z,66.60
2018-06-22T20:50:34.907Z,66.60
2018-06-22T20:53:02.215Z,66.40
2018-06-22T20:55:29.544Z,66.50
2018-06-22T20:57:56.862Z,66.60
2018-06-22T21:00:24.174Z,66.90
2018-06-22T21:02:51.518Z,67.60
2018-06-22T21:05:18.837Z,68.00
2018-06-22T21:07:46.136Z,67.80
2018-06-22T21:10:13.447Z,68.10
2018-06-22T21:12:40.889Z,68.50
2018-06-22T21:15:08.079Z,68.80
2018-06-22T21:17:35.435Z,69.70
2018-06-22T21:20:02.739Z,69.80
2018-06-22T21:22:30.042Z,69.40
2018-06-22T21:24:57.368Z,69.30
2018-06-22T21:27:24.762Z,69.70
2018-06-22T21:29:52.079Z,69.50
2018-06-22T21:32:19.499Z,69.00
2018-06-22T21:37:13.964Z,69.90
2018-06-22T21:39:41.274Z,70.10
2018-06-22T21:42:08.606Z,70.20
2018-06-22T21:44:35.908Z,70.10
2018-06-22T21:49:30.369Z,70.10
2018-06-22T21:51:57.672Z,70.30
2018-06-22T21:54:25.091Z,71.00
2018-06-22T21:56:52.406Z,71.10
2018-06-22T21:59:19.738Z,71.10
2018-06-22T22:01:47.041Z,71.10
2018-06-22T22:04:14.335Z,71.30
2018-06-22T22:06:41.652Z,71.50
2018-06-22T22:09:08.965Z,71.60
2018-06-22T22:11:36.295Z,71.70
2018-06-22T22:14:03.631Z,72.00
2018-06-22T22:16:30.989Z,72.10
2018-06-22T22:18:58.310Z,71.90
2018-06-22T22:21:25.663Z,71.50
2018-06-22T22:23:53.001Z,71.20
2018-06-22T22:28:47.559Z,71.50
2018-06-22T22:31:14.855Z,71.80
2018-06-22T22:33:42.345Z,71.70
2018-06-22T22:36:09.637Z,71.90
2018-06-22T22:38:36.931Z,72.30
2018-06-22T22:41:04.261Z,72.20
2018-06-22T22:43:31.636Z,72.10
2018-06-22T22:45:59.090Z,72.10
2018-06-22T22:48:26.394Z,72.30
2018-06-22T22:50:53.698Z,72.10
2018-06-22T22:53:21.026Z,72.10
2018-06-22T22:55:48.301Z,72.30
2018-06-22T22:58:15.614Z,72.00
2018-06-22T23:00:42.914Z,71.80
2018-06-22T23:03:10.219Z,72.00
2018-06-22T23:05:37.532Z,72.40
2018-06-22T23:08:04.827Z,72.80
2018-06-22T23:10:32.169Z,72.80
2018-06-22T23:12:59.484Z,72.40
2018-06-22T23:15:26.819Z,72.20
2018-06-22T23:20:21.342Z,72.50
2018-06-22T23:23:00.180Z,72.50
2018-06-22T23:25:27.478Z,72.80
2018-06-22T23:27:54.792Z,72.50
2018-06-22T23:30:22.149Z,72.50
2018-06-22T23:32:49.481Z,72.20
2018-06-22T23:35:16.795Z,71.80
2018-06-22T23:37:44.134Z,71.70
2018-06-22T23:40:11.453Z,72.90
2018-06-22T23:42:38.752Z,74.10
2018-06-22T23:45:06.237Z,74.60
2018-06-22T23:47:33.590Z,74.80
2018-06-22T23:50:00.911Z,74.90
2018-06-22T23:52:28.242Z,74.90
2018-06-22T23:54:55.657Z,74.90
2018-06-22T23:57:22.887Z,75.70
2018-06-22T23:59:50.223Z,75.80
